• Join FlightAware (Why Join?)
  • Login
  • US Flag 
03:57AM EDT


 

Airport Tracker/Info


-or-


 

Live Flight TrackerFlight Track Log ✈ AAY883 ✈ 28-Apr-2013 ✈ KGRR - KPIE

Flight Track Log - Related Links

Times and Time Zones

All times are in EDT time to prevent confusion due to time zone crossing. See the AAY883 flight status page for this flight to view local times or setup timezone preferences in your user account.

Time Position Orientation Groundspeed Altitude Reporting Facility
EDT Latitude Longitude Course Direction KTS MPH feet Rate Location/Type
06:39PM 42.8161 -85.5072 173° South 195 224 2,700  Level Chicago Center
06:40PM 42.7467 -85.4967 174° South 248 285 4,300 2,220 Climbing Chicago Center
06:41PM 42.6703 -85.4858 174° South 272 313 7,400 2,820 Climbing Chicago Center
06:42PM 42.5736 -85.4686 173° South 288 331 10,200 1,980 Climbing Chicago Center
06:43PM 42.4806 -85.4522 173° South 329 379 11,600 1,320 Climbing Chicago Center
06:44PM 42.2397 -85.3759 173° South  Level Estimated
06:44PM 42.3750 -85.4347 173° South 376 433 13,000  Level Chicago Center
06:45PM 42.2619 -85.4156 173° South 402 463 15,200 2,040 Climbing Chicago Center
06:46PM 42.1461 -85.3958 173° South 415 478 17,300 1,980 Climbing Chicago Center
06:47PM 42.0261 -85.4031 183° South 428 493 19,400 1,920 Climbing Chicago Center
06:48PM 41.8911 -85.4083 182° South 434 499 21,300 1,560 Climbing Chicago Center
06:49PM 41.7650 -85.4144 182° South 447 514 22,700 1,500 Climbing Chicago Center
06:50PM 41.6225 -85.4208 182° South 459 528 24,400 1,080 Climbing Chicago Center
06:51PM 41.4858 -85.4267 182° South 477 549 25,000 240 Climbing Chicago Center
06:52PM 41.3494 -85.4339 182° South 488 562 25,000 540 Level Chicago Center
06:53PM 41.2147 -85.4419 183° South 487 560 26,200 1,200 Climbing Chicago Center
06:54PM 41.0828 -85.4361 178° South 478 550 27,500 1,140 Climbing Chicago Center
06:55PM 40.9225 -85.4150 174° South 484 557 28,600 720 Climbing Chicago Center
06:56PM 40.7919 -85.3892 171° South 478 550 29,000 540 Climbing Chicago Center
06:57PM 40.6600 -85.3700 174° South 477 549 29,800 900 Climbing Chicago Center
06:58PM 40.5353 -85.3528 174° South 466 536 30,900 540 Climbing Chicago Center
06:59PM 40.3831 -85.3347 175° South 465 535 31,000  Climbing Chicago Center
07:00PM 40.2744 -85.3183 173° South 463 533 31,000 420 Level Indianapolis Center
07:01PM 40.1442 -85.2978 173° South 464 534 31,800 600 Climbing Indianapolis Center
07:02PM 40.0169 -85.2769 173° South 457 526 32,300 540 Climbing Indianapolis Center
07:03PM 39.8917 -85.2575 173° South 451 519 33,000 300 Climbing Indianapolis Center
07:04PM 39.7653 -85.2406 174° South 450 518 33,000  Level Indianapolis Center
07:05PM 39.6400 -85.2253 175° South 449 517 33,000  Level Indianapolis Center
07:06PM 39.5142 -85.2094 174° South 449 517 33,000  Level Indianapolis Center
07:07PM 39.3697 -85.1861 173° South 445 512 33,000  Level Indianapolis Center
07:08PM 39.2461 -85.1678 173° South 443 510 33,000  Level Indianapolis Center
07:09PM 39.1233 -85.1508 174° South 440 506 33,000  Level Indianapolis Center
07:10PM 39.0000 -85.1358 175° South 440 506 33,000  Level Indianapolis Center
07:11PM 38.8778 -85.1181 174° South 438 504 33,000  Level Indianapolis Center
07:12PM 38.7550 -85.1003 174° South 439 505 33,000  Level Indianapolis Center
07:13PM 38.6208 -85.0825 174° South 437 503 33,000  Level Indianapolis Center
07:15PM 38.5019 -85.0647 173° South 432 497 33,000  Level Indianapolis Center
07:16PM 38.3825 -85.0481 174° South 429 494 33,000  Level Indianapolis Center
07:17PM 38.2628 -85.0342 175° South 430 495 33,000  Level Indianapolis Center
07:18PM 38.1244 -85.0164 174° South 428 493 33,000  Level Indianapolis Center
07:19PM 38.0086 -84.9997 174° South 420 483 33,000  Level Indianapolis Center
07:20PM 37.8922 -84.9811 173° South 421 484 33,000  Level Indianapolis Center
07:21PM 37.7772 -84.9661 174° South 415 478 33,000  Level Indianapolis Center
07:22PM 37.6628 -84.9508 174° South 413 475 33,000  Level Indianapolis Center
07:23PM 37.5483 -84.9367 174° South 413 475 33,000  Level Indianapolis Center
07:24PM 37.4164 -84.9194 174° South 407 468 33,000  Level Indianapolis Center
07:25PM 37.3039 -84.9022 173° South 406 467 33,000  Level Indianapolis Center
07:26PM 37.1917 -84.8878 174° South 403 464 33,000  Level Indianapolis Center
07:27PM 37.0808 -84.8753 175° South 400 460 33,000  Level Indianapolis Center
07:28PM 36.9519 -84.8569 174° South 404 465 33,000  Level Indianapolis Center
07:29PM 36.8408 -84.8422 174° South 401 461 33,000  Level Indianapolis Center
07:30PM 36.7294 -84.8267 174° South 401 461 33,000  Level Indianapolis Center
07:31PM 36.6186 -84.8131 174° South 401 461 33,000  Level Indianapolis Center
07:32PM 36.5075 -84.7997 174° South 400 460 33,000  Level Indianapolis Center
07:33PM 36.3958 -84.7850 174° South 401 461 33,000  Level Indianapolis Center
07:34PM 36.2831 -84.7692 174° South 406 467 33,000  Level Indianapolis Center
07:35PM 36.1719 -84.7539 174° South 402 463 33,000  Level Indianapolis Center
07:36PM 36.0772 -84.7453 176° South 406 467 33,000  Level Atlanta Center
07:37PM 35.9667 -84.7289 173° South 406 467 33,000  Level Atlanta Center
07:38PM 35.8500 -84.7125 174° South 406 467 33,000  Level Atlanta Center
07:39PM 35.7375 -84.6989 174° South 406 467 33,000  Level Atlanta Center
07:40PM 35.6206 -84.6850 174° South 411 473 33,000  Level Atlanta Center
07:41PM 35.5269 -84.6717 173° South 416 479 33,000  Level Atlanta Center
07:42PM 35.4039 -84.6578 175° South 416 479 33,000  Level Atlanta Center
07:43PM 35.2850 -84.6442 175° South 421 484 33,000  Level Atlanta Center
07:44PM 35.1703 -84.6308 175° South 421 484 33,000  Level Atlanta Center
07:45PM 35.0533 -84.6147 174° South 426 490 33,000  Level Atlanta Center
07:46PM 34.9389 -84.5986 173° South 421 484 33,000  Level Atlanta Center
07:47PM 34.8242 -84.5853 175° South 421 484 33,000  Level Atlanta Center
07:48PM 34.7072 -84.5744 176° South 421 484 33,000  Level Atlanta Center
07:49PM 34.5947 -84.5561 172° South 421 484 33,000  Level Atlanta Center
07:50PM 34.4778 -84.5428 175° South 420 483 33,000  Level Atlanta Center
07:51PM 34.3589 -84.5244 173° South 426 490 33,000  Level Atlanta Center
07:52PM 34.2317 -84.5086 174° South 426 490 33,000  Level Atlanta Center
07:53PM 34.1064 -84.4878 172° South 426 490 33,000  Level Atlanta Center
07:54PM 33.9961 -84.4297 156° South 434 499 33,000  Level Atlanta Center
07:55PM 33.8856 -84.3692 156° South 433 498 33,000  Level Atlanta Center
07:56PM 33.7731 -84.3061 155° Southeast 453 521 33,000  Level Atlanta Center
07:57PM 33.6606 -84.2458 156° South 453 521 33,000  Level Atlanta Center
07:58PM 33.5542 -84.2158 167° South 447 514 33,000  Level Atlanta Center
07:59PM 33.4372 -84.2181 181° South 426 490 33,000  Level Atlanta Center
08:00PM 33.3161 -84.2028 174° South 426 490 33,000  Level Atlanta Center
08:01PM 33.1867 -84.1606 165° South 426 490 33,000  Level Atlanta Center
08:02PM 33.0678 -84.1256 166° South 431 496 33,000  Level Atlanta Center
08:03PM 32.9636 -84.0883 163° South 431 496 33,000  Level Atlanta Center
08:04PM 32.8425 -84.0758 175° South 431 496 33,000  Level Atlanta Center
08:05PM 32.7214 -84.0858 184° South 431 496 33,000  Level Atlanta Center
08:06PM 32.6025 -84.1103 190° South 431 496 33,000  Level Atlanta Center
08:07PM 32.4833 -84.1275 187° South 436 502 33,000  Level Atlanta Center
08:08PM 32.3644 -84.1422 186° South 436 502 33,000  Level Atlanta Center
08:09PM 32.2411 -84.1567 186° South 436 502 33,000  Level Atlanta Center
08:10PM 32.1222 -84.1714 186° South 441 507 33,000  Level Atlanta Center
08:10PM 32.0556 -84.1819 188° South 440 506 33,000  Level Jacksonville Center
08:11PM 31.9364 -84.1975 186° South 434 499 33,000  Level Jacksonville Center
08:12PM 31.8153 -84.2128 186° South 429 494 33,000  Level Jacksonville Center
08:13PM 31.6939 -84.2283 186° South 435 501 33,000  Level Jacksonville Center
08:14PM 31.5725 -84.2458 187° South 435 501 33,000  Level Jacksonville Center
08:15PM 31.4492 -84.2611 186° South 442 509 33,000  Level Jacksonville Center
08:16PM 31.3281 -84.2764 186° South 442 509 33,000  Level Jacksonville Center
08:17PM 31.2067 -84.2942 187° South 447 514 33,000  Level Jacksonville Center
08:18PM 31.0833 -84.3092 186° South 447 514 33,000  Level Jacksonville Center
08:19PM 30.9642 -84.3219 185° South 447 514 33,000  Level Jacksonville Center
08:20PM 30.8414 -84.2886 167° South 442 509 33,000  Level Jacksonville Center
08:21PM 30.7228 -84.2411 161° South 447 514 33,000  Level Jacksonville Center
08:22PM 30.6022 -84.1886 159° South 455 524 33,000 -300 Level Jacksonville Center
08:23PM 30.4878 -84.1486 163° South 455 524 32,500 -900 Descending Jacksonville Center
08:24PM 30.3672 -84.1036 162° South 455 524 31,300 -780 Descending Jacksonville Center
08:25PM 30.2444 -84.0589 163° South 460 529 31,000 -180 Descending Jacksonville Center
08:26PM 30.1239 -84.0117 161° South 460 529 31,000  Level Jacksonville Center
08:27PM 30.0053 -83.9672 162° South 460 529 31,000  Level Jacksonville Center
08:28PM 29.8867 -83.9228 162° South 460 529 31,000  Level Jacksonville Center
08:29PM 29.7681 -83.8689 158° South 460 529 31,000  Level Jacksonville Center
08:30PM 29.6578 -83.7983 151° Southeast 460 529 31,000  Level Jacksonville Center
08:31PM 29.5497 -83.7233 149° Southeast 455 524 31,000 -540 Level Jacksonville Center
08:32PM 29.4292 -83.6436 150° Southeast 455 524 30,000 -1,500 Descending Jacksonville Center
08:33PM 29.3189 -83.5761 152° Southeast 455 524 28,000 -1,860 Descending Jacksonville Center
08:34PM 29.2150 -83.5111 151° Southeast 449 517 26,300 -1,800 Descending Jacksonville Center
08:35PM 29.1108 -83.4439 151° Southeast 439 505 24,500 -1,260 Descending Jacksonville Center
08:36PM 29.0108 -83.3792 150° Southeast 424 488 23,800 -1,320 Descending Jacksonville Center
08:37PM 28.9089 -83.3125 150° Southeast 419 482 21,900 -2,040 Descending Jacksonville Center
08:38PM 28.8153 -83.2528 151° Southeast 403 464 19,800 -2,100 Descending Jacksonville Center
08:39PM 28.7192 -83.1933 152° Southeast 398 458 17,800 -2,040 Descending Jacksonville Center
08:41PM 28.6000 -83.1167 151° Southeast 365 420 14,900 -1,980 Descending Tampa TRACON
08:42PM 28.5167 -83.0667 152° Southeast 350 403 13,100 -1,500 Descending Tampa TRACON
08:43PM 28.4333 -83.0167 152° Southeast 326 375 12,100 -1,080 Descending Tampa TRACON
08:44PM 28.3667 -82.9667 147° Southeast 288 331 11,000 -540 Descending Tampa TRACON
08:45PM 28.2833 -82.9333 161° South 284 327 11,000 -120 Level Tampa TRACON
08:46PM 28.2167 -82.8833 147° Southeast 287 330 10,800 -900 Descending Tampa TRACON
08:47PM 28.1500 -82.8500 156° South 275 316 9,200 -1,680 Descending Tampa TRACON
08:48PM 28.0833 -82.8167 156° South 269 310 7,500 -1,620 Descending Tampa TRACON
08:49PM 28.0167 -82.8000 168° South 237 273 6,000 -1,500 Descending Tampa TRACON
08:50PM 27.9500 -82.7667 156° South 216 249 4,600 -1,440 Descending Tampa TRACON